Time;durP1;ratioP1;P1;durP2;ratioP2;P2;SDS_P1;SDS_P2;PMS_P1;PMS_P2;Temp;Humidity;BMP_temperature;BMP_pressure;BME280_temperature;BME280_humidity;BME280_pressure;Samples;Min_cycle;Max_cycle;Signal;HPM_P1;HPM_P2
2022/07/08 00:00:26;;;;;;;8.20;1.40;;;;;;;15.38;80.51;102869.75;5176385;27;20110;-51
2022/07/08 00:02:54;;;;;;;6.60;1.75;;;;;;;15.31;80.46;102871.03;5175534;27;20042;-54
2022/07/08 00:05:23;;;;;;;7.32;1.48;;;;;;;15.32;80.67;102871.88;5175711;27;20122;-51
2022/07/08 00:07:53;;;;;;;5.53;1.20;;;;;;;15.26;80.82;102875.72;5175700;27;20054;-48
2022/07/08 00:10:22;;;;;;;9.23;1.52;;;;;;;15.19;81.18;102872.53;5176506;27;20038;-58
2022/07/08 00:12:50;;;;;;;7.78;1.23;;;;;;;15.21;81.12;102869.78;5175134;27;20061;-51
2022/07/08 00:15:20;;;;;;;8.40;1.77;;;;;;;15.27;81.05;102871.25;5176267;27;20073;-58
2022/07/08 00:17:48;;;;;;;6.80;1.25;;;;;;;15.29;81.17;102874.69;5175143;27;20049;-50
2022/07/08 00:20:16;;;;;;;6.63;1.38;;;;;;;15.18;81.93;102875.25;5175239;27;20058;-53
2022/07/08 00:22:46;;;;;;;8.05;1.40;;;;;;;15.20;82.10;102870.72;5175717;27;20046;-50
2022/07/08 00:25:14;;;;;;;6.38;1.27;;;;;;;15.26;82.06;102877.50;5175770;27;20133;-59
2022/07/08 00:27:42;;;;;;;7.30;1.60;;;;;;;15.31;82.08;102880.75;5173948;27;20560;-47
2022/07/08 00:30:12;;;;;;;5.57;1.10;;;;;;;15.31;82.13;102878.09;5171723;27;20091;-52
2022/07/08 00:32:40;;;;;;;7.70;1.75;;;;;;;15.30;82.56;102873.75;5174467;27;20531;-51
2022/07/08 00:35:09;;;;;;;11.77;1.63;;;;;;;15.24;82.50;102882.88;5175977;27;20054;-58
2022/07/08 00:37:37;;;;;;;8.65;1.40;;;;;;;15.23;82.72;102875.00;5174444;27;20046;-54
2022/07/08 00:40:07;;;;;;;7.25;1.27;;;;;;;15.29;82.57;102875.53;5171536;27;20051;-54
2022/07/08 00:42:35;;;;;;;8.38;1.63;;;;;;;15.17;83.18;102885.00;5156924;27;20133;-59
2022/07/08 00:45:04;;;;;;;4.93;1.65;;;;;;;15.16;83.13;102882.41;5175787;27;20126;-58
2022/07/08 00:47:32;;;;;;;8.68;1.55;;;;;;;15.22;83.14;102879.47;5175614;27;20113;-48
2022/07/08 00:50:00;;;;;;;10.10;1.65;;;;;;;15.13;83.05;102880.78;5175565;27;20442;-58
2022/07/08 00:52:28;;;;;;;7.53;1.58;;;;;;;15.14;82.66;102879.00;5175212;27;20038;-52
2022/07/08 00:54:56;;;;;;;7.55;1.40;;;;;;;15.12;82.73;102881.75;5170600;27;20385;-51
2022/07/08 00:57:26;;;;;;;8.82;1.50;;;;;;;15.11;82.83;102890.63;5172234;27;20046;-58
2022/07/08 00:59:55;;;;;;;11.73;1.70;;;;;;;15.14;82.15;102884.31;5175165;27;20038;-59
2022/07/08 01:02:23;;;;;;;7.85;1.52;;;;;;;15.09;82.88;102892.47;5173378;27;20119;-51
2022/07/08 01:04:52;;;;;;;9.75;1.88;;;;;;;15.09;82.97;102896.94;5170585;27;20065;-51
2022/07/08 01:07:20;;;;;;;8.18;1.42;;;;;;;15.11;81.79;102895.91;5172330;27;20050;-52
2022/07/08 01:09:48;;;;;;;8.50;1.40;;;;;;;15.03;82.68;102898.97;5174602;27;20516;-47
2022/07/08 01:12:17;;;;;;;8.13;1.30;;;;;;;15.02;82.29;102901.69;5173645;27;20577;-49
2022/07/08 01:14:47;;;;;;;7.80;1.55;;;;;;;15.03;82.44;102898.13;5171457;27;20038;-51
2022/07/08 01:17:15;;;;;;;9.90;1.70;;;;;;;14.94;81.72;102904.72;5171333;27;20050;-51
2022/07/08 01:19:43;;;;;;;9.82;1.30;;;;;;;14.95;81.53;102901.16;5174953;27;20038;-58
2022/07/08 01:22:12;;;;;;;7.75;1.45;;;;;;;14.94;82.17;102898.59;5175402;27;20050;-58
2022/07/08 01:24:40;;;;;;;9.30;1.40;;;;;;;14.90;81.98;102889.91;5155008;27;20054;-48
2022/07/08 01:27:08;;;;;;;7.55;1.38;;;;;;;14.92;83.26;102884.56;5171351;27;20042;-49
2022/07/08 01:29:37;;;;;;;4.43;1.20;;;;;;;14.89;82.98;102893.53;5155917;27;20058;-50
2022/07/08 01:32:05;;;;;;;7.53;1.52;;;;;;;14.96;83.46;102892.28;5174820;27;20035;-58
2022/07/08 01:34:33;;;;;;;6.07;1.48;;;;;;;14.89;82.61;102896.19;5174580;27;20142;-58
2022/07/08 01:37:02;;;;;;;6.38;1.52;;;;;;;14.73;82.26;102892.59;5174918;27;20046;-58
2022/07/08 01:39:32;;;;;;;6.35;1.40;;;;;;;14.78;82.49;102895.84;5174858;27;20117;-52
2022/07/08 01:42:00;;;;;;;10.77;1.50;;;;;;;14.80;82.87;102884.25;5174109;27;20046;-53
2022/07/08 01:44:28;;;;;;;11.68;1.63;;;;;;;14.91;83.00;102883.69;5175116;27;20077;-59
2022/07/08 01:46:56;;;;;;;10.75;1.65;;;;;;;14.81;83.31;102888.59;5174938;27;20102;-59
2022/07/08 01:49:24;;;;;;;8.23;1.70;;;;;;;14.67;83.75;102888.44;5172957;27;20117;-49
2022/07/08 01:51:52;;;;;;;4.32;1.30;;;;;;;14.77;84.05;102886.22;5174622;27;20042;-50
2022/07/08 01:54:20;;;;;;;6.35;1.40;;;;;;;14.70;84.01;102894.44;5173986;27;20101;-48
2022/07/08 01:56:50;;;;;;;7.50;1.52;;;;;;;14.65;84.53;102895.63;5172413;27;20066;-58
2022/07/08 01:59:18;;;;;;;7.43;1.83;;;;;;;14.65;85.00;102891.16;5174642;27;20047;-58
2022/07/08 02:01:46;;;;;;;6.72;1.52;;;;;;;14.62;85.09;102891.28;5174840;27;20402;-51
2022/07/08 02:04:14;;;;;;;11.45;1.73;;;;;;;14.63;84.87;102900.13;5173639;27;20549;-52
2022/07/08 02:06:42;;;;;;;7.40;1.60;;;;;;;14.60;85.09;102900.25;5174575;27;20065;-49
2022/07/08 02:09:10;;;;;;;11.70;1.58;;;;;;;14.63;85.21;102901.00;5174061;27;20038;-50
2022/07/08 02:14:25;;;;;;;8.30;2.13;;;;;;;14.61;84.78;102891.38;5174889;27;20087;-59
2022/07/08 02:16:53;;;;;;;9.02;1.63;;;;;;;14.60;84.84;102892.31;5174480;27;20046;-51
2022/07/08 02:19:22;;;;;;;7.95;1.33;;;;;;;14.66;85.00;102887.59;5173889;27;20049;-53
2022/07/08 02:21:50;;;;;;;9.30;1.42;;;;;;;14.68;84.94;102890.16;5173213;27;20050;-51
2022/07/08 02:24:18;;;;;;;8.82;1.70;;;;;;;14.67;84.55;102889.31;5170256;27;20042;-50
2022/07/08 02:26:46;;;;;;;6.68;1.77;;;;;;;14.66;84.55;102890.25;5154492;27;20388;-54
2022/07/08 02:29:14;;;;;;;5.30;1.50;;;;;;;14.66;84.73;102890.25;5155313;27;20065;-48
2022/07/08 02:31:43;;;;;;;11.35;2.00;;;;;;;14.59;84.50;102880.88;5174208;27;20073;-58
2022/07/08 02:34:12;;;;;;;10.70;1.50;;;;;;;14.61;84.44;102889.56;5174903;27;20074;-59
2022/07/08 02:36:40;;;;;;;7.68;1.80;;;;;;;14.58;84.81;102892.38;5174717;27;20079;-58
2022/07/08 02:39:08;;;;;;;7.28;1.67;;;;;;;14.58;85.25;102880.94;5174698;27;20051;-59
2022/07/08 02:41:38;;;;;;;7.18;1.42;;;;;;;14.54;84.93;102890.81;5176560;27;20052;-52
2022/07/08 02:44:06;;;;;;;7.60;1.42;;;;;;;14.55;84.98;102881.94;5178045;27;20102;-58
2022/07/08 02:46:34;;;;;;;10.60;1.77;;;;;;;14.58;85.20;102880.94;5178095;27;20064;-58
2022/07/08 02:49:04;;;;;;;7.90;1.60;;;;;;;14.59;85.25;102893.22;5178314;27;20042;-52
2022/07/08 02:51:32;;;;;;;6.53;1.38;;;;;;;14.46;85.72;102893.84;5178817;27;20054;-58
2022/07/08 02:54:00;;;;;;;8.27;1.52;;;;;;;14.50;85.64;102891.91;5178485;27;20073;-57
2022/07/08 02:56:29;;;;;;;9.65;1.52;;;;;;;14.44;85.44;102884.25;5177944;27;20038;-58
2022/07/08 02:59:04;;;;;;;7.13;1.48;;;;;;;14.33;85.81;102887.47;5178055;27;20060;-50
2022/07/08 03:01:32;;;;;;;4.90;1.20;;;;;;;14.35;86.44;102880.28;5177797;27;20382;-53
2022/07/08 03:04:00;;;;;;;9.43;1.60;;;;;;;14.33;86.39;102888.31;5177957;27;20556;-59
2022/07/08 03:06:30;;;;;;;7.93;1.60;;;;;;;14.28;87.12;102887.66;5177542;27;20350;-51
2022/07/08 03:08:58;;;;;;;6.82;1.27;;;;;;;14.28;86.80;102882.38;5177336;27;20087;-53
2022/07/08 03:11:26;;;;;;;9.50;1.52;;;;;;;14.25;87.79;102882.53;5177556;27;20070;-59
2022/07/08 03:13:54;;;;;;;10.18;1.90;;;;;;;14.17;87.44;102889.97;5177714;27;20053;-59
2022/07/08 03:16:25;;;;;;;5.60;1.52;;;;;;;14.15;87.94;102891.81;5177061;27;20068;-51
2022/07/08 03:18:53;;;;;;;4.55;1.45;;;;;;;14.12;88.13;102891.97;5175157;27;20039;-58
2022/07/08 03:21:21;;;;;;;7.65;1.67;;;;;;;14.11;88.88;102890.25;5177778;27;20046;-52
2022/07/08 03:23:50;;;;;;;8.38;1.65;;;;;;;14.06;89.18;102887.84;5174265;27;20102;-58
2022/07/08 03:26:18;;;;;;;8.48;1.52;;;;;;;14.13;88.91;102888.41;5177064;27;20049;-58
2022/07/08 03:28:47;;;;;;;7.53;1.90;;;;;;;14.12;89.17;102894.63;5176912;27;20046;-51
2022/07/08 03:31:15;;;;;;;7.75;1.58;;;;;;;14.06;90.09;102894.91;5175718;27;20123;-53
2022/07/08 03:33:43;;;;;;;7.72;1.67;;;;;;;14.00;90.58;102891.63;5177048;27;20095;-59
2022/07/08 03:36:11;;;;;;;10.30;1.63;;;;;;;13.92;91.78;102892.91;5177473;27;20408;-59
2022/07/08 03:38:39;;;;;;;8.63;1.80;;;;;;;13.92;92.17;102904.38;5159089;27;20050;-53
2022/07/08 03:41:21;;;;;;;7.68;1.52;;;;;;;13.92;92.52;102900.84;5176863;27;20065;-51
2022/07/08 03:43:50;;;;;;;12.07;2.08;;;;;;;13.85;92.89;102898.50;5176487;27;20126;-52
2022/07/08 03:46:18;;;;;;;7.45;1.70;;;;;;;13.79;93.35;102901.41;5176792;27;20038;-49
2022/07/08 03:48:47;;;;;;;8.05;1.73;;;;;;;13.71;94.41;102902.72;5176650;27;20077;-51
2022/07/08 03:51:16;;;;;;;7.55;2.38;;;;;;;13.72;94.26;102913.22;5176368;27;20113;-58
2022/07/08 03:53:45;;;;;;;8.40;1.58;;;;;;;13.72;94.73;102917.66;5177365;27;20038;-58
2022/07/08 03:56:14;;;;;;;10.32;1.70;;;;;;;13.65;95.47;102910.00;5176834;27;20114;-51
2022/07/08 03:58:42;;;;;;;7.88;1.98;;;;;;;13.60;95.92;102913.78;5176545;27;20050;-50
2022/07/08 04:01:10;;;;;;;6.60;1.70;;;;;;;13.53;96.31;102919.31;5176708;27;20500;-59
2022/07/08 04:03:38;;;;;;;7.28;1.63;;;;;;;13.46;96.90;102925.81;5176584;27;20030;-59
2022/07/08 04:06:07;;;;;;;11.65;2.10;;;;;;;13.48;97.31;102929.28;5176821;27;20053;-49
2022/07/08 04:08:35;;;;;;;9.27;2.05;;;;;;;13.53;97.42;102934.34;5155641;27;20135;-51
2022/07/08 04:11:03;;;;;;;8.90;1.75;;;;;;;13.47;97.98;102930.19;5152953;27;20438;-58
2022/07/08 04:13:32;;;;;;;7.55;2.28;;;;;;;13.40;98.26;102926.06;5175426;27;20042;-52
2022/07/08 04:16:02;;;;;;;8.30;2.10;;;;;;;13.42;99.11;102934.81;5176842;27;20066;-59
2022/07/08 04:18:31;;;;;;;8.20;2.30;;;;;;;13.42;99.28;102929.53;5176688;27;20049;-58
2022/07/08 04:20:59;;;;;;;9.90;2.67;;;;;;;13.38;99.58;102927.09;5176720;27;20450;-52
2022/07/08 04:23:28;;;;;;;6.82;1.73;;;;;;;13.32;100.00;102931.69;5157941;27;20103;-54
2022/07/08 04:25:59;;;;;;;7.85;1.80;;;;;;;13.39;100.00;102932.31;5176838;27;20061;-60
2022/07/08 04:28:27;;;;;;;10.82;2.30;;;;;;;13.40;100.00;102938.44;5176110;27;20099;-58
2022/07/08 04:30:57;;;;;;;13.13;2.10;;;;;;;13.45;100.00;102945.25;5176478;27;20377;-50
2022/07/08 04:33:25;;;;;;;16.65;2.30;;;;;;;13.43;100.00;102948.88;5175248;27;20046;-53
2022/07/08 04:35:53;;;;;;;12.43;2.05;;;;;;;13.51;100.00;102952.03;5157054;27;20046;-51
2022/07/08 04:38:21;;;;;;;11.60;2.30;;;;;;;13.55;100.00;102953.63;5174976;27;20034;-48
2022/07/08 04:40:49;;;;;;;8.45;2.00;;;;;;;13.66;100.00;102956.66;5174542;27;20499;-54
2022/07/08 04:43:17;;;;;;;12.57;2.13;;;;;;;13.70;100.00;102957.38;5175003;27;20042;-51
2022/07/08 04:45:49;;;;;;;8.35;1.80;;;;;;;13.71;100.00;102963.53;5174339;27;20026;-51
2022/07/08 04:48:18;;;;;;;8.48;1.88;;;;;;;13.73;100.00;102969.59;5175801;27;20504;-54
2022/07/08 04:50:46;;;;;;;10.82;2.22;;;;;;;13.73;100.00;102957.25;5172622;27;20046;-51
2022/07/08 04:53:14;;;;;;;9.07;2.10;;;;;;;13.75;99.64;102960.66;5155417;27;20049;-49
2022/07/08 04:55:42;;;;;;;10.73;2.40;;;;;;;13.80;99.74;102957.84;5175852;27;20125;-59
2022/07/08 04:58:10;;;;;;;11.90;2.13;;;;;;;13.90;99.42;102969.69;5176025;27;20500;-59
2022/07/08 05:00:38;;;;;;;10.90;2.60;;;;;;;13.88;98.42;102966.28;5170137;27;20118;-52
2022/07/08 05:03:06;;;;;;;11.80;2.08;;;;;;;13.92;99.21;102970.50;5174988;27;20430;-58
2022/07/08 05:05:36;;;;;;;6.47;1.73;;;;;;;13.97;98.73;102976.41;5175773;27;20438;-58
2022/07/08 05:08:04;;;;;;;12.05;2.20;;;;;;;13.94;98.93;102979.22;5174940;27;20034;-50
2022/07/08 05:10:33;;;;;;;12.57;2.58;;;;;;;13.98;98.76;102974.66;5174757;27;20038;-51
2022/07/08 05:13:01;;;;;;;10.13;2.08;;;;;;;14.08;98.27;102978.56;5175277;27;20463;-58
2022/07/08 05:15:30;;;;;;;7.88;2.03;;;;;;;14.03;97.64;102976.16;5176518;27;20541;-57
2022/07/08 05:17:58;;;;;;;10.82;2.08;;;;;;;14.05;98.32;102978.72;5175740;27;20441;-58
2022/07/08 05:20:26;;;;;;;9.85;2.25;;;;;;;14.12;98.10;102979.28;5175824;27;20110;-58
2022/07/08 05:23:03;;;;;;;12.05;2.20;;;;;;;14.14;98.43;102982.75;5175674;27;20074;-58
2022/07/08 05:25:31;;;;;;;11.25;1.95;;;;;;;14.21;97.43;102984.16;5175142;27;20045;-51
2022/07/08 05:27:59;;;;;;;13.82;2.40;;;;;;;14.24;97.84;102984.00;5174628;27;20046;-52
2022/07/08 05:30:28;;;;;;;13.45;2.58;;;;;;;14.28;96.79;102982.09;5174711;27;20129;-51
2022/07/08 05:32:56;;;;;;;11.35;1.92;;;;;;;14.30;97.69;102989.03;5174270;27;20569;-52
2022/07/08 05:35:24;;;;;;;12.48;1.88;;;;;;;14.32;96.91;102989.81;5175605;27;20042;-58
2022/07/08 05:37:52;;;;;;;9.45;2.25;;;;;;;14.43;96.96;102989.28;5175155;27;20042;-51
2022/07/08 05:40:21;;;;;;;10.93;2.13;;;;;;;14.43;96.50;102985.81;5172606;27;20077;-57
2022/07/08 05:42:50;;;;;;;8.68;2.28;;;;;;;14.50;97.21;102996.00;5175181;27;20046;-57
2022/07/08 05:45:18;;;;;;;10.80;2.67;;;;;;;14.45;96.34;102998.03;5175077;27;20057;-48
2022/07/08 05:47:46;;;;;;;14.93;3.13;;;;;;;14.56;96.97;103000.16;5174623;27;20118;-57
2022/07/08 05:50:14;;;;;;;10.52;2.22;;;;;;;14.51;96.47;102996.88;5175213;27;20450;-58
2022/07/08 05:52:42;;;;;;;9.25;2.30;;;;;;;14.62;96.90;102996.38;5175342;27;20034;-52
2022/07/08 05:55:10;;;;;;;10.02;2.03;;;;;;;14.64;95.96;103002.47;5174345;27;20361;-50
2022/07/08 05:57:40;;;;;;;8.65;1.92;;;;;;;14.69;96.58;103001.31;5174213;27;20054;-51
2022/07/08 06:00:09;;;;;;;11.30;2.78;;;;;;;14.81;96.16;103007.81;5154809;27;20535;-53
2022/07/08 06:02:38;;;;;;;7.25;1.75;;;;;;;14.91;95.74;103015.31;5174380;27;20035;-58
2022/07/08 06:05:06;;;;;;;11.50;2.10;;;;;;;15.00;94.78;103010.41;5171868;27;20073;-53
2022/07/08 06:07:35;;;;;;;10.63;1.90;;;;;;;15.07;93.80;102999.50;5174230;27;20444;-47
2022/07/08 06:10:03;;;;;;;8.70;1.73;;;;;;;15.15;93.93;103007.94;5173659;27;20126;-50
2022/07/08 06:12:31;;;;;;;8.63;1.77;;;;;;;15.21;93.35;103018.22;5171650;27;20069;-58
2022/07/08 06:15:00;;;;;;;7.78;1.90;;;;;;;15.26;92.23;103010.03;5171247;27;20058;-59
2022/07/08 06:17:28;;;;;;;6.40;1.70;;;;;;;15.30;92.40;103016.91;5175864;27;20046;-51
2022/07/08 06:19:56;;;;;;;14.88;2.50;;;;;;;15.34;91.74;103016.66;5178628;27;20553;-58
2022/07/08 06:22:24;;;;;;;8.77;1.95;;;;;;;15.40;91.79;103011.97;5178483;27;20042;-57
2022/07/08 06:24:55;;;;;;;10.70;1.65;;;;;;;15.48;92.04;103012.44;5178681;27;20128;-59
2022/07/08 06:27:23;;;;;;;11.82;1.80;;;;;;;15.63;90.71;103003.69;5178199;27;20138;-57
2022/07/08 06:29:51;;;;;;;7.95;1.38;;;;;;;15.75;90.43;103014.56;5175899;27;20065;-57
2022/07/08 06:32:20;;;;;;;14.40;2.17;;;;;;;15.82;89.02;103014.22;5176073;27;20038;-50
2022/07/08 06:34:49;;;;;;;7.13;1.65;;;;;;;15.90;88.89;103013.81;5178492;27;20054;-59
2022/07/08 06:37:17;;;;;;;8.15;1.60;;;;;;;16.00;88.36;103012.34;5159475;27;20573;-59
2022/07/08 06:39:45;;;;;;;10.80;1.60;;;;;;;16.15;90.19;103013.31;5178106;27;20121;-59
2022/07/08 06:42:13;;;;;;;11.32;2.42;;;;;;;16.34;88.59;103007.84;5176790;27;20042;-48
2022/07/08 06:44:41;;;;;;;11.15;1.80;;;;;;;16.36;87.85;103003.34;5175707;27;20038;-58
2022/07/08 06:47:11;;;;;;;11.15;2.00;;;;;;;16.53;87.21;103002.38;5176515;27;20046;-58
2022/07/08 06:49:48;;;;;;;7.65;1.98;;;;;;;16.71;86.79;103003.16;5177792;27;20046;-56
2022/07/08 06:52:17;;;;;;;11.30;1.80;;;;;;;16.83;84.25;102998.06;5158563;27;20057;-51
2022/07/08 06:54:47;;;;;;;10.48;1.85;;;;;;;16.99;85.39;102992.75;5178003;27;20042;-57
2022/07/08 06:57:15;;;;;;;12.25;1.45;;;;;;;17.03;85.12;103000.44;5173263;27;20038;-56
2022/07/08 06:59:43;;;;;;;10.43;1.60;;;;;;;17.12;84.47;103003.50;5175077;27;20042;-57
2022/07/08 07:02:31;;;;;;;7.22;1.60;;;;;;;17.25;83.85;103001.84;5176958;27;20053;-50
2022/07/08 07:05:01;;;;;;;10.90;1.98;;;;;;;17.31;83.70;103009.44;5177959;27;20111;-51
2022/07/08 07:07:29;;;;;;;8.43;2.03;;;;;;;17.39;83.35;103001.00;5177807;27;20046;-50
2022/07/08 07:09:57;;;;;;;9.55;1.95;;;;;;;17.43;84.30;102991.91;5177186;27;20073;-56
2022/07/08 07:12:25;;;;;;;6.22;1.50;;;;;;;17.65;86.17;102996.75;5177096;27;20114;-50
2022/07/08 07:14:53;;;;;;;9.48;1.40;;;;;;;17.76;83.91;102995.25;5155604;27;20544;-58
2022/07/08 07:17:22;;;;;;;12.32;1.90;;;;;;;17.83;81.90;102999.22;5160940;27;20073;-51
2022/07/08 07:19:50;;;;;;;7.45;1.42;;;;;;;17.82;83.70;102994.84;5161613;27;20106;-51
2022/07/08 07:22:28;;;;;;;11.18;1.60;;;;;;;17.85;81.92;103000.00;5159844;27;20045;-52
2022/07/08 07:24:56;;;;;;;9.90;1.42;;;;;;;18.00;80.80;103009.72;5176217;27;20057;-57
2022/07/08 07:27:24;;;;;;;8.32;1.50;;;;;;;18.13;80.77;103014.28;5164924;27;20050;-51
2022/07/08 07:29:52;;;;;;;8.25;1.45;;;;;;;18.19;78.81;103012.06;5168711;27;20113;-59
2022/07/08 07:32:20;;;;;;;8.88;2.00;;;;;;;18.22;79.07;103013.69;5175337;27;20114;-58
2022/07/08 07:34:48;;;;;;;9.65;1.73;;;;;;;18.18;78.29;103023.66;5170574;27;20045;-51
2022/07/08 07:37:16;;;;;;;9.98;1.70;;;;;;;18.27;78.47;103011.59;5165878;27;20046;-56
2022/07/08 07:39:46;;;;;;;8.75;1.63;;;;;;;18.28;79.33;103017.78;5162337;27;20042;-56
2022/07/08 07:42:14;;;;;;;12.13;1.70;;;;;;;18.18;78.47;103022.81;5173405;27;20099;-57
2022/07/08 07:44:42;;;;;;;9.82;1.77;;;;;;;18.20;78.67;103024.44;5151956;27;20050;-57
2022/07/08 07:47:10;;;;;;;7.75;1.40;;;;;;;18.24;79.05;103033.94;5142967;27;20370;-48
2022/07/08 07:49:38;;;;;;;7.07;1.60;;;;;;;18.18;78.10;103023.66;5161145;27;20070;-52
2022/07/08 07:52:06;;;;;;;10.20;1.50;;;;;;;18.52;78.97;103026.84;5172079;27;20486;-49
2022/07/08 07:54:34;;;;;;;7.43;1.55;;;;;;;18.77;76.89;103024.41;5171855;27;20042;-58
2022/07/08 07:57:05;;;;;;;8.75;1.60;;;;;;;18.93;74.92;103019.78;5154642;27;20556;-58
2022/07/08 07:59:33;;;;;;;9.27;1.95;;;;;;;19.13;74.49;103015.78;5164623;27;20445;-57
2022/07/08 08:02:01;;;;;;;8.50;1.48;;;;;;;19.15;71.77;103011.19;5157362;27;20057;-52
2022/07/08 08:04:29;;;;;;;8.45;1.30;;;;;;;19.28;72.56;103019.22;5175510;27;20352;-58
2022/07/08 08:06:57;;;;;;;8.48;1.30;;;;;;;19.42;73.35;103011.13;5157438;27;20136;-52
2022/07/08 08:09:25;;;;;;;9.18;1.40;;;;;;;19.60;71.49;103024.16;5173832;27;20061;-56
2022/07/08 08:11:53;;;;;;;7.53;1.40;;;;;;;19.55;71.72;103021.81;5174520;27;20042;-58
2022/07/08 08:14:23;;;;;;;8.48;1.48;;;;;;;19.62;70.13;103024.91;5158343;27;20434;-53
2022/07/08 08:16:51;;;;;;;9.60;1.42;;;;;;;19.56;70.18;103018.16;5169095;27;20061;-50
2022/07/08 08:19:19;;;;;;;10.88;1.77;;;;;;;19.70;69.27;103024.34;5165358;27;20396;-56
2022/07/08 08:21:47;;;;;;;8.63;1.83;;;;;;;19.79;69.40;103018.38;5155904;27;20522;-56
2022/07/08 08:24:15;;;;;;;6.78;1.60;;;;;;;19.97;69.93;103024.25;5172145;27;20170;-50
2022/07/08 08:26:44;;;;;;;8.82;1.80;;;;;;;20.06;69.85;103022.78;5159791;27;20091;-57
2022/07/08 08:29:12;;;;;;;7.35;1.67;;;;;;;20.15;68.37;103023.91;5163732;27;20073;-57
2022/07/08 08:31:41;;;;;;;7.25;1.30;;;;;;;20.33;66.89;103022.59;5164735;27;20042;-49
2022/07/08 08:34:09;;;;;;;8.90;1.35;;;;;;;20.30;65.45;103020.16;5172993;27;20502;-56
2022/07/08 08:36:37;;;;;;;10.18;1.88;;;;;;;20.38;64.32;103020.44;5153166;27;20050;-51
2022/07/08 08:39:13;;;;;;;8.18;1.60;;;;;;;20.59;66.24;103017.16;5163769;27;20038;-53
2022/07/08 08:41:42;;;;;;;5.70;1.40;;;;;;;20.76;62.57;103016.78;5168127;27;20392;-57
2022/07/08 08:44:11;;;;;;;8.63;1.55;;;;;;;20.96;63.95;103025.13;5174406;27;20063;-56
2022/07/08 08:46:42;;;;;;;7.18;1.65;;;;;;;20.96;61.87;103024.28;5154134;27;20478;-56
2022/07/08 08:49:11;;;;;;;8.48;1.70;;;;;;;21.06;62.99;103023.44;5163663;27;20049;-57
2022/07/08 08:51:41;;;;;;;8.52;1.60;;;;;;;21.29;61.73;103018.16;5163996;27;20070;-57
2022/07/08 08:54:10;;;;;;;6.03;1.30;;;;;;;21.46;62.16;103016.88;5174247;27;20038;-54
2022/07/08 08:56:38;;;;;;;8.07;1.98;;;;;;;21.24;61.94;103015.88;5159309;27;20137;-57
2022/07/08 08:59:07;;;;;;;6.10;1.33;;;;;;;21.40;62.25;103012.00;5166314;27;20107;-51
2022/07/08 09:01:35;;;;;;;6.95;1.60;;;;;;;21.53;60.89;103015.47;5163054;27;20452;-56
2022/07/08 09:04:10;;;;;;;8.48;2.03;;;;;;;21.77;59.10;103015.38;5154193;27;20038;-52
2022/07/08 09:06:39;;;;;;;7.50;1.38;;;;;;;21.92;58.71;103012.41;5151107;27;20038;-48
2022/07/08 09:09:08;;;;;;;7.13;1.60;;;;;;;22.21;60.20;103006.53;5135148;27;20047;-53
2022/07/08 09:11:36;;;;;;;6.25;1.27;;;;;;;22.09;57.58;103011.09;5167100;27;20058;-56
2022/07/08 09:14:25;;;;;;;7.25;1.40;;;;;;;22.34;58.75;103001.03;5157501;27;20125;-56
2022/07/08 09:17:09;;;;;;;8.23;1.88;;;;;;;22.50;59.92;103011.41;5154761;27;20042;-50
2022/07/08 09:19:39;;;;;;;7.15;1.42;;;;;;;22.74;58.58;103012.03;5161112;27;20054;-55
2022/07/08 09:22:08;;;;;;;9.93;1.55;;;;;;;22.83;57.14;103005.03;5171188;27;20086;-55
2022/07/08 09:24:38;;;;;;;10.18;1.80;;;;;;;23.06;58.11;103002.25;5171652;27;20393;-49
2022/07/08 09:27:08;;;;;;;7.55;1.70;;;;;;;23.27;60.58;103000.47;5174541;27;20041;-50
2022/07/08 09:29:39;;;;;;;7.22;2.00;;;;;;;23.42;58.40;103003.66;5169648;27;20041;-57
2022/07/08 09:32:12;;;;;;;8.90;2.00;;;;;;;23.27;57.49;102999.59;5157025;27;20489;-51
2022/07/08 09:34:42;;;;;;;10.02;2.10;;;;;;;23.33;56.91;102996.38;5169130;27;20039;-56
2022/07/08 09:37:15;;;;;;;6.53;1.80;;;;;;;23.50;58.79;102992.22;5162838;27;20034;-55
2022/07/08 09:39:44;;;;;;;7.13;1.65;;;;;;;23.65;57.78;102992.72;5158665;27;20072;-51
2022/07/08 09:42:14;;;;;;;8.00;1.55;;;;;;;23.82;57.27;102996.63;5164648;27;20054;-56
2022/07/08 09:44:42;;;;;;;9.50;1.65;;;;;;;23.88;57.92;102992.53;5157249;27;20389;-53
2022/07/08 09:47:12;;;;;;;8.40;1.60;;;;;;;23.86;55.52;102997.19;5174371;27;20046;-56
2022/07/08 09:49:42;;;;;;;7.47;1.45;;;;;;;23.96;56.39;102992.72;5162099;27;20511;-57
2022/07/08 09:52:12;;;;;;;8.20;1.50;;;;;;;24.13;54.94;102992.06;5170216;27;20056;-55
2022/07/08 09:54:40;;;;;;;9.52;1.63;;;;;;;24.34;54.79;102991.13;5160443;27;20038;-50
2022/07/08 09:57:11;;;;;;;7.45;1.67;;;;;;;24.57;54.50;102997.09;5169449;27;20042;-57
2022/07/08 09:59:39;;;;;;;9.18;1.45;;;;;;;24.64;54.18;102992.84;5160736;27;20046;-55
2022/07/08 10:02:07;;;;;;;9.80;1.60;;;;;;;24.55;54.92;102998.22;5170540;27;20106;-56
2022/07/08 10:04:35;;;;;;;7.50;1.80;;;;;;;24.63;54.41;102993.00;5159962;27;20126;-53
2022/07/08 10:07:05;;;;;;;6.38;1.30;;;;;;;24.50;54.51;102998.66;5169731;27;20043;-48
2022/07/08 10:09:34;;;;;;;7.68;1.75;;;;;;;24.69;52.72;103003.22;5169515;27;20094;-55
2022/07/08 10:12:03;;;;;;;4.50;1.42;;;;;;;24.91;52.70;102993.13;5160826;27;20077;-50
2022/07/08 10:14:31;;;;;;;7.72;1.35;;;;;;;25.43;50.45;102979.31;5156547;27;20039;-52
2022/07/08 10:17:00;;;;;;;6.20;1.40;;;;;;;25.70;51.09;102983.88;5164495;27;20091;-55
2022/07/08 10:19:35;;;;;;;6.70;1.58;;;;;;;25.75;50.11;102986.97;5165611;27;20062;-55
2022/07/08 10:22:07;;;;;;;6.68;1.40;;;;;;;26.00;49.21;102984.59;5174329;27;20129;-51
2022/07/08 10:24:40;;;;;;;6.00;1.48;;;;;;;25.86;49.16;102987.78;5173636;27;20113;-50
2022/07/08 10:27:09;;;;;;;;;;;;;;;26.31;48.09;102995.03;5159971;27;20045;-51
2022/07/08 10:29:39;;;;;;;7.65;1.52;;;;;;;26.05;47.37;103001.16;5161140;27;19925;-49
2022/07/08 10:32:24;;;;;;;5.70;1.52;;;;;;;26.19;49.00;102990.88;5174237;27;20103;-52
2022/07/08 10:35:10;;;;;;;6.20;1.40;;;;;;;26.34;48.94;102997.41;5163852;27;20046;-53
2022/07/08 10:37:50;;;;;;;6.15;1.60;;;;;;;26.27;46.29;102999.03;5164261;27;20046;-51
2022/07/08 10:40:48;;;;;;;6.65;1.15;;;;;;;26.43;46.24;102987.56;5174261;27;20042;-50
2022/07/08 10:43:26;;;;;;;6.72;1.40;;;;;;;26.54;46.05;102990.03;5162805;27;20056;-56
2022/07/08 10:46:12;;;;;;;5.70;1.40;;;;;;;26.43;47.35;102987.56;5162014;27;20043;-55
2022/07/08 10:48:51;;;;;;;5.50;1.48;;;;;;;26.56;48.26;102990.75;5161664;27;20561;-51
2022/07/08 10:51:56;;;;;;;6.95;1.58;;;;;;;26.75;46.33;102981.66;5166740;27;20064;-52
2022/07/08 10:54:38;;;;;;;5.55;1.63;;;;;;;26.82;47.49;102987.28;5175338;27;20035;-52
2022/07/08 10:57:27;;;;;;;6.80;1.60;;;;;;;26.66;46.56;102994.19;5167666;27;21595;-51
2022/07/08 11:00:08;;;;;;;4.85;1.25;;;;;;;26.37;46.79;102994.44;5168305;27;20062;-57
2022/07/08 11:02:41;;;;;;;5.50;1.50;;;;;;;26.04;48.00;102994.09;5153539;27;20046;-54
2022/07/08 11:05:34;;;;;;;7.82;1.60;;;;;;;26.29;48.66;102983.56;5155518;27;20499;-55
2022/07/08 11:08:27;;;;;;;7.43;1.90;;;;;;;26.30;46.22;102983.41;5163298;27;20078;-57
2022/07/08 11:11:04;;;;;;;4.68;1.40;;;;;;;26.72;46.78;102975.72;5164258;27;20503;-53
2022/07/08 11:13:41;;;;;;;5.72;1.60;;;;;;;26.90;47.20;102972.97;5146024;27;20049;-51
2022/07/08 11:16:24;;;;;;;7.95;1.77;;;;;;;26.98;46.48;102973.03;5172802;27;20497;-55
2022/07/08 11:19:00;;;;;;;7.97;1.67;;;;;;;27.18;47.32;102975.56;5163070;27;20046;-54
2022/07/08 11:21:39;;;;;;;7.50;1.65;;;;;;;27.36;45.87;102973.66;5165347;27;20043;-55
2022/07/08 11:24:28;;;;;;;5.35;1.63;;;;;;;27.35;45.69;102974.66;5173177;27;20035;-52
2022/07/08 11:26:58;;;;;;;6.60;1.58;;;;;;;27.26;45.49;102968.34;5163396;27;20038;-54
2022/07/08 11:29:26;;;;;;;6.82;1.60;;;;;;;27.10;45.71;102971.78;5165043;27;20050;-53
2022/07/08 11:31:57;;;;;;;8.63;1.70;;;;;;;27.02;46.14;102973.59;5170765;27;20049;-53
2022/07/08 11:34:25;;;;;;;9.63;1.60;;;;;;;26.45;46.14;102975.63;5154685;27;20084;-52
2022/07/08 11:36:54;;;;;;;7.20;1.65;;;;;;;26.53;47.24;102966.75;5167423;27;20126;-57
2022/07/08 11:39:22;;;;;;;9.65;1.70;;;;;;;26.74;45.66;102969.16;5163787;27;20522;-49